sensor_id;sensor_type;location;lat;lon;timestamp;P1;durP1;ratioP1;P2;durP2;ratioP2
71838;SDS011;59687;37.520;15.068;2022-07-09T00:02:00;6.43;;;1.10;;
71838;SDS011;59687;37.520;15.068;2022-07-09T00:04:29;3.47;;;1.00;;
71838;SDS011;59687;37.520;15.068;2022-07-09T00:06:57;3.50;;;1.05;;
71838;SDS011;59687;37.520;15.068;2022-07-09T00:09:25;3.33;;;0.98;;
71838;SDS011;59687;37.520;15.068;2022-07-09T00:11:52;3.25;;;0.80;;
71838;SDS011;59687;37.520;15.068;2022-07-09T00:14:19;3.75;;;1.05;;
71838;SDS011;59687;37.520;15.068;2022-07-09T00:16:46;3.60;;;1.17;;
71838;SDS011;59687;37.520;15.068;2022-07-09T00:19:13;2.80;;;0.82;;
71838;SDS011;59687;37.520;15.068;2022-07-09T00:21:40;3.42;;;1.00;;
71838;SDS011;59687;37.520;15.068;2022-07-09T00:24:07;2.92;;;0.80;;
71838;SDS011;59687;37.520;15.068;2022-07-09T00:26:34;5.30;;;1.30;;
71838;SDS011;59687;37.520;15.068;2022-07-09T00:29:02;3.13;;;1.30;;
71838;SDS011;59687;37.520;15.068;2022-07-09T00:31:30;3.78;;;1.17;;
71838;SDS011;59687;37.520;15.068;2022-07-09T00:33:57;4.07;;;1.45;;
71838;SDS011;59687;37.520;15.068;2022-07-09T00:36:24;4.53;;;1.30;;
71838;SDS011;59687;37.520;15.068;2022-07-09T00:38:51;3.50;;;1.30;;
71838;SDS011;59687;37.520;15.068;2022-07-09T00:41:18;3.67;;;1.17;;
71838;SDS011;59687;37.520;15.068;2022-07-09T00:43:48;3.60;;;1.10;;
71838;SDS011;59687;37.520;15.068;2022-07-09T00:46:16;3.10;;;1.00;;
71838;SDS011;59687;37.520;15.068;2022-07-09T00:48:44;3.50;;;1.10;;
71838;SDS011;59687;37.520;15.068;2022-07-09T00:51:14;3.72;;;1.38;;
71838;SDS011;59687;37.520;15.068;2022-07-09T00:53:44;2.97;;;0.80;;
71838;SDS011;59687;37.520;15.068;2022-07-09T00:56:12;3.70;;;0.98;;
71838;SDS011;59687;37.520;15.068;2022-07-09T00:58:39;3.67;;;0.95;;
71838;SDS011;59687;37.520;15.068;2022-07-09T01:01:09;5.63;;;1.10;;
71838;SDS011;59687;37.520;15.068;2022-07-09T01:03:37;4.30;;;1.30;;
71838;SDS011;59687;37.520;15.068;2022-07-09T01:06:04;3.37;;;1.10;;
71838;SDS011;59687;37.520;15.068;2022-07-09T01:08:32;4.05;;;1.00;;
71838;SDS011;59687;37.520;15.068;2022-07-09T01:11:01;4.47;;;1.00;;
71838;SDS011;59687;37.520;15.068;2022-07-09T01:13:36;3.28;;;0.98;;
71838;SDS011;59687;37.520;15.068;2022-07-09T01:16:04;4.40;;;0.82;;
71838;SDS011;59687;37.520;15.068;2022-07-09T01:18:37;3.20;;;0.90;;
71838;SDS011;59687;37.520;15.068;2022-07-09T01:21:04;3.67;;;1.00;;
71838;SDS011;59687;37.520;15.068;2022-07-09T01:23:31;4.38;;;1.20;;
71838;SDS011;59687;37.520;15.068;2022-07-09T01:26:00;4.88;;;1.23;;
71838;SDS011;59687;37.520;15.068;2022-07-09T01:28:28;3.65;;;1.05;;
71838;SDS011;59687;37.520;15.068;2022-07-09T01:30:55;5.60;;;1.17;;
71838;SDS011;59687;37.520;15.068;2022-07-09T01:33:22;3.60;;;1.10;;
71838;SDS011;59687;37.520;15.068;2022-07-09T01:35:51;3.10;;;0.98;;
71838;SDS011;59687;37.520;15.068;2022-07-09T01:38:19;4.45;;;1.20;;
71838;SDS011;59687;37.520;15.068;2022-07-09T01:40:46;4.20;;;1.15;;
71838;SDS011;59687;37.520;15.068;2022-07-09T01:43:13;3.63;;;1.07;;
71838;SDS011;59687;37.520;15.068;2022-07-09T01:45:40;4.57;;;0.98;;
71838;SDS011;59687;37.520;15.068;2022-07-09T01:48:07;6.50;;;1.20;;
71838;SDS011;59687;37.520;15.068;2022-07-09T01:50:34;6.50;;;1.05;;
71838;SDS011;59687;37.520;15.068;2022-07-09T01:53:01;3.80;;;1.15;;
71838;SDS011;59687;37.520;15.068;2022-07-09T01:55:28;5.33;;;1.00;;
71838;SDS011;59687;37.520;15.068;2022-07-09T01:57:56;3.33;;;1.13;;
71838;SDS011;59687;37.520;15.068;2022-07-09T02:00:23;4.95;;;1.00;;
71838;SDS011;59687;37.520;15.068;2022-07-09T02:02:50;3.72;;;1.02;;
71838;SDS011;59687;37.520;15.068;2022-07-09T02:05:17;5.63;;;1.15;;
71838;SDS011;59687;37.520;15.068;2022-07-09T02:07:44;4.80;;;1.10;;
71838;SDS011;59687;37.520;15.068;2022-07-09T02:10:11;4.80;;;0.88;;
71838;SDS011;59687;37.520;15.068;2022-07-09T02:12:38;3.97;;;1.20;;
71838;SDS011;59687;37.520;15.068;2022-07-09T02:15:05;5.50;;;0.98;;
71838;SDS011;59687;37.520;15.068;2022-07-09T02:17:35;4.82;;;0.95;;
71838;SDS011;59687;37.520;15.068;2022-07-09T02:20:03;2.93;;;0.70;;
71838;SDS011;59687;37.520;15.068;2022-07-09T02:22:30;3.70;;;0.90;;
71838;SDS011;59687;37.520;15.068;2022-07-09T02:24:58;3.30;;;1.10;;
71838;SDS011;59687;37.520;15.068;2022-07-09T02:27:25;5.40;;;0.85;;
71838;SDS011;59687;37.520;15.068;2022-07-09T02:29:52;4.18;;;1.00;;
71838;SDS011;59687;37.520;15.068;2022-07-09T02:32:19;4.13;;;0.97;;
71838;SDS011;59687;37.520;15.068;2022-07-09T02:34:46;4.15;;;1.30;;
71838;SDS011;59687;37.520;15.068;2022-07-09T02:37:14;4.10;;;0.88;;
71838;SDS011;59687;37.520;15.068;2022-07-09T02:39:42;3.97;;;0.82;;
71838;SDS011;59687;37.520;15.068;2022-07-09T02:42:09;3.78;;;0.80;;
71838;SDS011;59687;37.520;15.068;2022-07-09T02:44:36;3.47;;;0.70;;
71838;SDS011;59687;37.520;15.068;2022-07-09T02:47:03;3.33;;;0.88;;
71838;SDS011;59687;37.520;15.068;2022-07-09T02:49:31;3.90;;;0.90;;
71838;SDS011;59687;37.520;15.068;2022-07-09T02:51:59;2.50;;;0.70;;
71838;SDS011;59687;37.520;15.068;2022-07-09T02:54:30;3.95;;;0.98;;
71838;SDS011;59687;37.520;15.068;2022-07-09T02:56:58;5.07;;;1.17;;
71838;SDS011;59687;37.520;15.068;2022-07-09T02:59:27;4.05;;;0.80;;
71838;SDS011;59687;37.520;15.068;2022-07-09T03:01:54;3.05;;;0.70;;
71838;SDS011;59687;37.520;15.068;2022-07-09T03:04:22;4.55;;;0.90;;
71838;SDS011;59687;37.520;15.068;2022-07-09T03:06:49;4.70;;;0.88;;
71838;SDS011;59687;37.520;15.068;2022-07-09T03:09:17;3.10;;;0.77;;
71838;SDS011;59687;37.520;15.068;2022-07-09T03:11:43;3.28;;;0.93;;
71838;SDS011;59687;37.520;15.068;2022-07-09T03:14:10;4.00;;;1.05;;
71838;SDS011;59687;37.520;15.068;2022-07-09T03:16:37;4.00;;;1.02;;
71838;SDS011;59687;37.520;15.068;2022-07-09T03:19:04;3.78;;;0.90;;
71838;SDS011;59687;37.520;15.068;2022-07-09T03:21:34;3.03;;;0.80;;
71838;SDS011;59687;37.520;15.068;2022-07-09T03:24:01;5.35;;;1.00;;
71838;SDS011;59687;37.520;15.068;2022-07-09T03:26:28;3.22;;;0.90;;
71838;SDS011;59687;37.520;15.068;2022-07-09T03:28:55;4.18;;;0.90;;
71838;SDS011;59687;37.520;15.068;2022-07-09T03:31:22;3.53;;;0.90;;
71838;SDS011;59687;37.520;15.068;2022-07-09T03:33:49;4.43;;;0.83;;
71838;SDS011;59687;37.520;15.068;2022-07-09T03:36:20;3.30;;;1.00;;
71838;SDS011;59687;37.520;15.068;2022-07-09T03:38:50;4.10;;;0.90;;
71838;SDS011;59687;37.520;15.068;2022-07-09T03:41:17;6.32;;;1.08;;
71838;SDS011;59687;37.520;15.068;2022-07-09T03:43:44;4.53;;;0.93;;
71838;SDS011;59687;37.520;15.068;2022-07-09T03:46:14;3.33;;;0.93;;
71838;SDS011;59687;37.520;15.068;2022-07-09T03:48:41;4.25;;;0.80;;
71838;SDS011;59687;37.520;15.068;2022-07-09T03:51:09;3.97;;;0.88;;
71838;SDS011;59687;37.520;15.068;2022-07-09T03:53:38;5.00;;;1.00;;
71838;SDS011;59687;37.520;15.068;2022-07-09T03:56:05;4.57;;;1.20;;
71838;SDS011;59687;37.520;15.068;2022-07-09T03:58:33;4.60;;;0.90;;
71838;SDS011;59687;37.520;15.068;2022-07-09T04:01:00;4.57;;;0.80;;
71838;SDS011;59687;37.520;15.068;2022-07-09T04:03:27;4.47;;;1.00;;
71838;SDS011;59687;37.520;15.068;2022-07-09T04:05:54;4.03;;;0.85;;
71838;SDS011;59687;37.520;15.068;2022-07-09T04:08:22;3.67;;;1.10;;
71838;SDS011;59687;37.520;15.068;2022-07-09T04:10:50;6.63;;;1.20;;
71838;SDS011;59687;37.520;15.068;2022-07-09T04:13:17;4.95;;;1.48;;
71838;SDS011;59687;37.520;15.068;2022-07-09T04:15:45;6.40;;;1.42;;
71838;SDS011;59687;37.520;15.068;2022-07-09T04:18:15;8.55;;;1.20;;
71838;SDS011;59687;37.520;15.068;2022-07-09T04:20:44;5.68;;;1.73;;
71838;SDS011;59687;37.520;15.068;2022-07-09T04:23:11;5.70;;;1.37;;
71838;SDS011;59687;37.520;15.068;2022-07-09T04:25:38;6.20;;;1.60;;
71838;SDS011;59687;37.520;15.068;2022-07-09T04:28:05;6.35;;;1.50;;
71838;SDS011;59687;37.520;15.068;2022-07-09T04:30:34;3.97;;;1.33;;
71838;SDS011;59687;37.520;15.068;2022-07-09T04:33:01;4.53;;;1.15;;
71838;SDS011;59687;37.520;15.068;2022-07-09T04:35:28;6.07;;;1.63;;
71838;SDS011;59687;37.520;15.068;2022-07-09T04:37:55;6.65;;;1.55;;
71838;SDS011;59687;37.520;15.068;2022-07-09T04:40:22;6.75;;;1.80;;
71838;SDS011;59687;37.520;15.068;2022-07-09T04:42:51;7.25;;;2.00;;
71838;SDS011;59687;37.520;15.068;2022-07-09T04:45:18;6.60;;;1.58;;
71838;SDS011;59687;37.520;15.068;2022-07-09T04:47:46;4.90;;;1.40;;
71838;SDS011;59687;37.520;15.068;2022-07-09T04:50:13;4.10;;;0.90;;
71838;SDS011;59687;37.520;15.068;2022-07-09T04:52:40;6.22;;;2.00;;
71838;SDS011;59687;37.520;15.068;2022-07-09T04:55:07;3.40;;;1.00;;
71838;SDS011;59687;37.520;15.068;2022-07-09T04:57:36;3.80;;;0.90;;
71838;SDS011;59687;37.520;15.068;2022-07-09T05:00:04;2.93;;;1.00;;
71838;SDS011;59687;37.520;15.068;2022-07-09T05:02:32;6.15;;;1.35;;
71838;SDS011;59687;37.520;15.068;2022-07-09T05:04:59;4.65;;;1.10;;
71838;SDS011;59687;37.520;15.068;2022-07-09T05:07:26;6.28;;;0.90;;
71838;SDS011;59687;37.520;15.068;2022-07-09T05:09:54;4.32;;;1.10;;
71838;SDS011;59687;37.520;15.068;2022-07-09T05:12:21;7.50;;;1.20;;
71838;SDS011;59687;37.520;15.068;2022-07-09T05:14:48;4.88;;;1.00;;
71838;SDS011;59687;37.520;15.068;2022-07-09T05:17:15;3.60;;;0.98;;
71838;SDS011;59687;37.520;15.068;2022-07-09T05:19:42;4.60;;;1.00;;
71838;SDS011;59687;37.520;15.068;2022-07-09T05:22:09;5.50;;;1.00;;
71838;SDS011;59687;37.520;15.068;2022-07-09T05:24:36;3.93;;;1.07;;
71838;SDS011;59687;37.520;15.068;2022-07-09T05:27:05;4.38;;;0.93;;
71838;SDS011;59687;37.520;15.068;2022-07-09T05:29:32;3.80;;;1.10;;
71838;SDS011;59687;37.520;15.068;2022-07-09T05:31:59;3.72;;;0.88;;
71838;SDS011;59687;37.520;15.068;2022-07-09T05:34:26;4.32;;;1.00;;
71838;SDS011;59687;37.520;15.068;2022-07-09T05:36:53;4.70;;;1.00;;
71838;SDS011;59687;37.520;15.068;2022-07-09T05:39:22;5.35;;;1.30;;
71838;SDS011;59687;37.520;15.068;2022-07-09T05:41:49;4.80;;;1.15;;
71838;SDS011;59687;37.520;15.068;2022-07-09T05:44:16;5.10;;;1.05;;
71838;SDS011;59687;37.520;15.068;2022-07-09T05:46:45;3.08;;;1.10;;
71838;SDS011;59687;37.520;15.068;2022-07-09T05:49:12;6.20;;;1.00;;
71838;SDS011;59687;37.520;15.068;2022-07-09T05:51:39;5.20;;;1.48;;
71838;SDS011;59687;37.520;15.068;2022-07-09T05:54:07;3.95;;;1.30;;
71838;SDS011;59687;37.520;15.068;2022-07-09T05:56:36;4.78;;;1.20;;
71838;SDS011;59687;37.520;15.068;2022-07-09T05:59:04;4.35;;;1.05;;
71838;SDS011;59687;37.520;15.068;2022-07-09T06:01:31;4.30;;;1.40;;
71838;SDS011;59687;37.520;15.068;2022-07-09T06:03:58;7.22;;;1.80;;
71838;SDS011;59687;37.520;15.068;2022-07-09T06:06:25;5.28;;;1.83;;
71838;SDS011;59687;37.520;15.068;2022-07-09T06:08:52;5.88;;;1.67;;
71838;SDS011;59687;37.520;15.068;2022-07-09T06:11:20;6.53;;;1.42;;
71838;SDS011;59687;37.520;15.068;2022-07-09T06:13:47;6.43;;;1.70;;
71838;SDS011;59687;37.520;15.068;2022-07-09T06:16:15;5.82;;;1.67;;
71838;SDS011;59687;37.520;15.068;2022-07-09T06:18:43;8.23;;;2.13;;
71838;SDS011;59687;37.520;15.068;2022-07-09T06:21:10;3.85;;;1.25;;
71838;SDS011;59687;37.520;15.068;2022-07-09T06:23:37;5.80;;;1.42;;
71838;SDS011;59687;37.520;15.068;2022-07-09T06:26:04;5.33;;;1.63;;
71838;SDS011;59687;37.520;15.068;2022-07-09T06:28:31;4.30;;;1.60;;
71838;SDS011;59687;37.520;15.068;2022-07-09T06:31:01;4.53;;;1.50;;
71838;SDS011;59687;37.520;15.068;2022-07-09T06:33:27;4.68;;;1.40;;
71838;SDS011;59687;37.520;15.068;2022-07-09T06:35:55;4.32;;;1.42;;
71838;SDS011;59687;37.520;15.068;2022-07-09T06:38:22;4.27;;;1.47;;
71838;SDS011;59687;37.520;15.068;2022-07-09T06:40:49;9.18;;;2.80;;
71838;SDS011;59687;37.520;15.068;2022-07-09T06:43:20;8.20;;;3.45;;
71838;SDS011;59687;37.520;15.068;2022-07-09T06:45:51;12.75;;;3.53;;
71838;SDS011;59687;37.520;15.068;2022-07-09T06:48:20;7.30;;;2.85;;
71838;SDS011;59687;37.520;15.068;2022-07-09T06:50:46;5.07;;;2.00;;
71838;SDS011;59687;37.520;15.068;2022-07-09T06:53:14;5.03;;;1.50;;
71838;SDS011;59687;37.520;15.068;2022-07-09T06:55:41;4.13;;;1.63;;
71838;SDS011;59687;37.520;15.068;2022-07-09T06:58:09;4.50;;;1.48;;
71838;SDS011;59687;37.520;15.068;2022-07-09T07:00:36;5.45;;;1.70;;
71838;SDS011;59687;37.520;15.068;2022-07-09T07:03:04;6.70;;;1.90;;
71838;SDS011;59687;37.520;15.068;2022-07-09T07:05:31;4.03;;;1.50;;
71838;SDS011;59687;37.520;15.068;2022-07-09T07:07:58;4.78;;;1.30;;
71838;SDS011;59687;37.520;15.068;2022-07-09T07:10:25;4.72;;;1.48;;
71838;SDS011;59687;37.520;15.068;2022-07-09T07:12:53;6.07;;;1.70;;
71838;SDS011;59687;37.520;15.068;2022-07-09T07:15:21;4.43;;;1.50;;
71838;SDS011;59687;37.520;15.068;2022-07-09T07:17:49;6.13;;;1.70;;
71838;SDS011;59687;37.520;15.068;2022-07-09T07:20:18;4.93;;;1.70;;
71838;SDS011;59687;37.520;15.068;2022-07-09T07:22:49;3.97;;;1.50;;
71838;SDS011;59687;37.520;15.068;2022-07-09T07:25:16;5.53;;;1.92;;
71838;SDS011;59687;37.520;15.068;2022-07-09T07:27:43;9.40;;;2.00;;
71838;SDS011;59687;37.520;15.068;2022-07-09T07:30:10;5.85;;;1.92;;
71838;SDS011;59687;37.520;15.068;2022-07-09T07:32:38;4.43;;;1.50;;
71838;SDS011;59687;37.520;15.068;2022-07-09T07:35:06;5.20;;;1.90;;
71838;SDS011;59687;37.520;15.068;2022-07-09T07:37:33;5.47;;;1.80;;
71838;SDS011;59687;37.520;15.068;2022-07-09T07:40:01;4.83;;;1.60;;
71838;SDS011;59687;37.520;15.068;2022-07-09T07:42:31;5.80;;;1.40;;
71838;SDS011;59687;37.520;15.068;2022-07-09T07:44:59;5.68;;;1.95;;
71838;SDS011;59687;37.520;15.068;2022-07-09T07:47:26;4.70;;;1.52;;
71838;SDS011;59687;37.520;15.068;2022-07-09T07:49:54;4.35;;;1.63;;
71838;SDS011;59687;37.520;15.068;2022-07-09T07:52:21;4.13;;;1.50;;
71838;SDS011;59687;37.520;15.068;2022-07-09T07:54:48;4.45;;;1.48;;
71838;SDS011;59687;37.520;15.068;2022-07-09T07:57:18;4.43;;;2.00;;
71838;SDS011;59687;37.520;15.068;2022-07-09T07:59:48;5.93;;;2.08;;
71838;SDS011;59687;37.520;15.068;2022-07-09T08:02:15;6.60;;;1.77;;
71838;SDS011;59687;37.520;15.068;2022-07-09T08:04:45;4.73;;;2.00;;
71838;SDS011;59687;37.520;15.068;2022-07-09T08:07:15;5.85;;;2.00;;
71838;SDS011;59687;37.520;15.068;2022-07-09T08:09:42;6.15;;;1.95;;
71838;SDS011;59687;37.520;15.068;2022-07-09T08:12:09;6.60;;;2.45;;
71838;SDS011;59687;37.520;15.068;2022-07-09T08:14:36;5.93;;;2.28;;
71838;SDS011;59687;37.520;15.068;2022-07-09T08:17:03;4.83;;;2.20;;
71838;SDS011;59687;37.520;15.068;2022-07-09T08:19:30;5.38;;;2.10;;
71838;SDS011;59687;37.520;15.068;2022-07-09T08:21:58;6.35;;;2.00;;
71838;SDS011;59687;37.520;15.068;2022-07-09T08:24:25;4.35;;;1.60;;
71838;SDS011;59687;37.520;15.068;2022-07-09T08:26:53;4.50;;;2.00;;
71838;SDS011;59687;37.520;15.068;2022-07-09T08:29:20;4.53;;;2.13;;
71838;SDS011;59687;37.520;15.068;2022-07-09T08:31:46;5.50;;;2.45;;
71838;SDS011;59687;37.520;15.068;2022-07-09T08:34:16;4.90;;;1.90;;
71838;SDS011;59687;37.520;15.068;2022-07-09T08:36:44;5.65;;;2.20;;
71838;SDS011;59687;37.520;15.068;2022-07-09T08:39:12;6.10;;;2.20;;
71838;SDS011;59687;37.520;15.068;2022-07-09T08:41:42;5.77;;;1.97;;
71838;SDS011;59687;37.520;15.068;2022-07-09T08:44:10;6.65;;;2.50;;
71838;SDS011;59687;37.520;15.068;2022-07-09T08:46:38;5.63;;;2.25;;
71838;SDS011;59687;37.520;15.068;2022-07-09T08:49:07;4.50;;;2.58;;
71838;SDS011;59687;37.520;15.068;2022-07-09T08:51:35;5.57;;;2.67;;
71838;SDS011;59687;37.520;15.068;2022-07-09T08:54:03;6.83;;;3.07;;
71838;SDS011;59687;37.520;15.068;2022-07-09T08:56:31;5.60;;;2.60;;
71838;SDS011;59687;37.520;15.068;2022-07-09T08:58:58;4.65;;;2.38;;
71838;SDS011;59687;37.520;15.068;2022-07-09T09:01:25;5.88;;;2.35;;
71838;SDS011;59687;37.520;15.068;2022-07-09T09:03:54;4.72;;;2.42;;
71838;SDS011;59687;37.520;15.068;2022-07-09T09:06:21;4.37;;;2.30;;
71838;SDS011;59687;37.520;15.068;2022-07-09T09:08:52;5.38;;;2.60;;
71838;SDS011;59687;37.520;15.068;2022-07-09T09:11:22;4.50;;;2.28;;
71838;SDS011;59687;37.520;15.068;2022-07-09T09:13:53;5.65;;;2.25;;
71838;SDS011;59687;37.520;15.068;2022-07-09T09:16:21;6.18;;;2.10;;
71838;SDS011;59687;37.520;15.068;2022-07-09T09:18:49;6.17;;;2.60;;
71838;SDS011;59687;37.520;15.068;2022-07-09T09:21:21;5.90;;;2.78;;
71838;SDS011;59687;37.520;15.068;2022-07-09T09:23:50;6.00;;;2.67;;
71838;SDS011;59687;37.520;15.068;2022-07-09T09:26:21;6.57;;;2.80;;
71838;SDS011;59687;37.520;15.068;2022-07-09T09:28:54;5.50;;;2.75;;
71838;SDS011;59687;37.520;15.068;2022-07-09T09:31:26;5.73;;;2.87;;
71838;SDS011;59687;37.520;15.068;2022-07-09T09:33:55;6.32;;;3.00;;
71838;SDS011;59687;37.520;15.068;2022-07-09T09:36:28;5.85;;;3.00;;
71838;SDS011;59687;37.520;15.068;2022-07-09T09:44:28;8.37;;;3.50;;
71838;SDS011;59687;37.520;15.068;2022-07-09T09:47:04;6.15;;;3.15;;
71838;SDS011;59687;37.520;15.068;2022-07-09T09:49:37;7.03;;;2.97;;
71838;SDS011;59687;37.520;15.068;2022-07-09T09:52:06;5.13;;;3.20;;
71838;SDS011;59687;37.520;15.068;2022-07-09T09:54:35;6.22;;;2.90;;
71838;SDS011;59687;37.520;15.068;2022-07-09T09:57:07;5.33;;;3.03;;
71838;SDS011;59687;37.520;15.068;2022-07-09T09:59:37;5.13;;;2.80;;
71838;SDS011;59687;37.520;15.068;2022-07-09T10:02:07;4.88;;;2.88;;
71838;SDS011;59687;37.520;15.068;2022-07-09T10:04:36;5.88;;;2.97;;
71838;SDS011;59687;37.520;15.068;2022-07-09T10:07:05;6.55;;;3.30;;
71838;SDS011;59687;37.520;15.068;2022-07-09T10:09:33;6.23;;;3.10;;
71838;SDS011;59687;37.520;15.068;2022-07-09T10:12:00;6.75;;;3.33;;
71838;SDS011;59687;37.520;15.068;2022-07-09T10:16:54;8.02;;;3.80;;
71838;SDS011;59687;37.520;15.068;2022-07-09T10:19:29;8.55;;;4.07;;
71838;SDS011;59687;37.520;15.068;2022-07-09T10:22:00;5.77;;;3.57;;
71838;SDS011;59687;37.520;15.068;2022-07-09T10:24:30;7.57;;;4.63;;
71838;SDS011;59687;37.520;15.068;2022-07-09T10:32:29;7.30;;;4.80;;
71838;SDS011;59687;37.520;15.068;2022-07-09T10:34:58;7.57;;;4.77;;
71838;SDS011;59687;37.520;15.068;2022-07-09T10:37:33;7.20;;;4.32;;
71838;SDS011;59687;37.520;15.068;2022-07-09T10:40:09;8.00;;;4.10;;
71838;SDS011;59687;37.520;15.068;2022-07-09T10:42:37;7.32;;;4.50;;
71838;SDS011;59687;37.520;15.068;2022-07-09T10:47:44;6.63;;;4.30;;
71838;SDS011;59687;37.520;15.068;2022-07-09T10:50:13;6.47;;;3.55;;
71838;SDS011;59687;37.520;15.068;2022-07-09T10:52:40;7.78;;;4.20;;
71838;SDS011;59687;37.520;15.068;2022-07-09T10:55:08;6.00;;;3.65;;
71838;SDS011;59687;37.520;15.068;2022-07-09T10:57:35;7.15;;;3.90;;
71838;SDS011;59687;37.520;15.068;2022-07-09T11:00:02;5.50;;;3.40;;
71838;SDS011;59687;37.520;15.068;2022-07-09T11:02:30;5.93;;;3.70;;
71838;SDS011;59687;37.520;15.068;2022-07-09T11:04:59;8.18;;;3.75;;
71838;SDS011;59687;37.520;15.068;2022-07-09T11:07:26;7.60;;;3.35;;
71838;SDS011;59687;37.520;15.068;2022-07-09T11:09:54;6.45;;;3.47;;
71838;SDS011;59687;37.520;15.068;2022-07-09T11:12:22;7.23;;;3.80;;
71838;SDS011;59687;37.520;15.068;2022-07-09T11:14:50;5.85;;;3.85;;
71838;SDS011;59687;37.520;15.068;2022-07-09T11:17:19;6.57;;;3.53;;
71838;SDS011;59687;37.520;15.068;2022-07-09T11:19:47;6.70;;;4.65;;
71838;SDS011;59687;37.520;15.068;2022-07-09T11:22:16;6.57;;;3.92;;
71838;SDS011;59687;37.520;15.068;2022-07-09T11:24:43;6.57;;;3.50;;
71838;SDS011;59687;37.520;15.068;2022-07-09T11:27:09;5.35;;;3.72;;
71838;SDS011;59687;37.520;15.068;2022-07-09T11:29:37;5.95;;;3.60;;
71838;SDS011;59687;37.520;15.068;2022-07-09T11:32:04;6.22;;;4.00;;
71838;SDS011;59687;37.520;15.068;2022-07-09T11:34:32;7.90;;;3.60;;
71838;SDS011;59687;37.520;15.068;2022-07-09T11:36:59;5.67;;;3.70;;
71838;SDS011;59687;37.520;15.068;2022-07-09T11:39:28;6.75;;;3.33;;
71838;SDS011;59687;37.520;15.068;2022-07-09T11:41:57;5.72;;;4.03;;
71838;SDS011;59687;37.520;15.068;2022-07-09T11:44:27;7.18;;;3.67;;
71838;SDS011;59687;37.520;15.068;2022-07-09T11:47:02;6.32;;;3.60;;
71838;SDS011;59687;37.520;15.068;2022-07-09T11:49:37;7.23;;;3.13;;
71838;SDS011;59687;37.520;15.068;2022-07-09T11:52:18;6.80;;;3.35;;
71838;SDS011;59687;37.520;15.068;2022-07-09T11:57:25;6.28;;;3.05;;
71838;SDS011;59687;37.520;15.068;2022-07-09T11:59:52;5.53;;;3.40;;
71838;SDS011;59687;37.520;15.068;2022-07-09T12:05:01;5.60;;;3.70;;
71838;SDS011;59687;37.520;15.068;2022-07-09T12:07:30;5.50;;;3.45;;
71838;SDS011;59687;37.520;15.068;2022-07-09T12:09:59;7.18;;;3.78;;
71838;SDS011;59687;37.520;15.068;2022-07-09T12:12:28;7.50;;;3.90;;
71838;SDS011;59687;37.520;15.068;2022-07-09T12:14:57;6.60;;;3.83;;
71838;SDS011;59687;37.520;15.068;2022-07-09T12:17:28;6.88;;;3.67;;
71838;SDS011;59687;37.520;15.068;2022-07-09T12:19:57;5.97;;;3.25;;
71838;SDS011;59687;37.520;15.068;2022-07-09T12:22:26;6.30;;;3.78;;
71838;SDS011;59687;37.520;15.068;2022-07-09T12:24:53;6.05;;;3.28;;
71838;SDS011;59687;37.520;15.068;2022-07-09T12:27:20;8.60;;;3.40;;
71838;SDS011;59687;37.520;15.068;2022-07-09T12:29:48;6.30;;;3.50;;
71838;SDS011;59687;37.520;15.068;2022-07-09T12:32:15;7.28;;;4.22;;
71838;SDS011;59687;37.520;15.068;2022-07-09T12:34:44;6.50;;;3.40;;
71838;SDS011;59687;37.520;15.068;2022-07-09T12:37:11;8.48;;;3.58;;
71838;SDS011;59687;37.520;15.068;2022-07-09T12:39:38;6.53;;;3.33;;
71838;SDS011;59687;37.520;15.068;2022-07-09T12:42:06;6.88;;;3.45;;
71838;SDS011;59687;37.520;15.068;2022-07-09T12:44:33;7.43;;;3.83;;
71838;SDS011;59687;37.520;15.068;2022-07-09T12:47:00;6.22;;;3.50;;
71838;SDS011;59687;37.520;15.068;2022-07-09T12:49:31;8.73;;;4.05;;
71838;SDS011;59687;37.520;15.068;2022-07-09T12:51:58;5.60;;;3.43;;
71838;SDS011;59687;37.520;15.068;2022-07-09T12:54:26;5.97;;;3.70;;
71838;SDS011;59687;37.520;15.068;2022-07-09T12:56:53;5.72;;;3.22;;
71838;SDS011;59687;37.520;15.068;2022-07-09T12:59:37;6.07;;;3.40;;
71838;SDS011;59687;37.520;15.068;2022-07-09T13:02:04;5.60;;;3.58;;
71838;SDS011;59687;37.520;15.068;2022-07-09T13:04:34;7.00;;;3.30;;
71838;SDS011;59687;37.520;15.068;2022-07-09T13:07:01;5.30;;;3.10;;
71838;SDS011;59687;37.520;15.068;2022-07-09T13:09:28;6.45;;;3.53;;
71838;SDS011;59687;37.520;15.068;2022-07-09T13:11:57;6.57;;;3.60;;
71838;SDS011;59687;37.520;15.068;2022-07-09T13:14:24;5.53;;;3.75;;
71838;SDS011;59687;37.520;15.068;2022-07-09T13:16:52;5.03;;;3.30;;
71838;SDS011;59687;37.520;15.068;2022-07-09T13:19:36;6.95;;;3.35;;
71838;SDS011;59687;37.520;15.068;2022-07-09T13:22:03;6.05;;;3.58;;
71838;SDS011;59687;37.520;15.068;2022-07-09T13:24:32;5.95;;;3.25;;
71838;SDS011;59687;37.520;15.068;2022-07-09T13:26:59;6.22;;;4.10;;
71838;SDS011;59687;37.520;15.068;2022-07-09T13:29:28;5.70;;;3.47;;
71838;SDS011;59687;37.520;15.068;2022-07-09T13:31:55;5.30;;;3.53;;
71838;SDS011;59687;37.520;15.068;2022-07-09T13:34:22;5.45;;;3.35;;
71838;SDS011;59687;37.520;15.068;2022-07-09T13:37:04;6.68;;;3.78;;
71838;SDS011;59687;37.520;15.068;2022-07-09T13:39:41;7.13;;;3.70;;
71838;SDS011;59687;37.520;15.068;2022-07-09T13:42:09;6.50;;;3.80;;
71838;SDS011;59687;37.520;15.068;2022-07-09T13:44:36;6.80;;;3.97;;
71838;SDS011;59687;37.520;15.068;2022-07-09T13:47:03;6.20;;;3.90;;
71838;SDS011;59687;37.520;15.068;2022-07-09T13:49:31;5.78;;;3.50;;
71838;SDS011;59687;37.520;15.068;2022-07-09T13:51:59;6.65;;;3.75;;
71838;SDS011;59687;37.520;15.068;2022-07-09T13:54:27;6.30;;;3.77;;
71838;SDS011;59687;37.520;15.068;2022-07-09T13:56:55;6.82;;;3.60;;
71838;SDS011;59687;37.520;15.068;2022-07-09T13:59:22;9.60;;;4.35;;
71838;SDS011;59687;37.520;15.068;2022-07-09T14:01:50;5.95;;;3.67;;
71838;SDS011;59687;37.520;15.068;2022-07-09T14:04:18;6.60;;;3.65;;
71838;SDS011;59687;37.520;15.068;2022-07-09T14:06:45;7.70;;;4.13;;
71838;SDS011;59687;37.520;15.068;2022-07-09T14:09:13;7.38;;;4.18;;
71838;SDS011;59687;37.520;15.068;2022-07-09T14:11:46;7.10;;;3.85;;
71838;SDS011;59687;37.520;15.068;2022-07-09T14:14:14;5.28;;;3.67;;
71838;SDS011;59687;37.520;15.068;2022-07-09T14:16:41;8.07;;;4.15;;
71838;SDS011;59687;37.520;15.068;2022-07-09T14:19:08;7.97;;;4.07;;
71838;SDS011;59687;37.520;15.068;2022-07-09T14:21:37;6.07;;;3.92;;
71838;SDS011;59687;37.520;15.068;2022-07-09T14:24:08;5.43;;;3.70;;
71838;SDS011;59687;37.520;15.068;2022-07-09T14:26:35;6.55;;;3.78;;
71838;SDS011;59687;37.520;15.068;2022-07-09T14:29:03;5.50;;;3.42;;
71838;SDS011;59687;37.520;15.068;2022-07-09T14:31:30;6.37;;;3.57;;
71838;SDS011;59687;37.520;15.068;2022-07-09T14:33:58;9.27;;;4.15;;
71838;SDS011;59687;37.520;15.068;2022-07-09T14:36:25;6.07;;;3.67;;
71838;SDS011;59687;37.520;15.068;2022-07-09T14:38:56;6.57;;;3.53;;
71838;SDS011;59687;37.520;15.068;2022-07-09T14:41:23;5.93;;;3.22;;
71838;SDS011;59687;37.520;15.068;2022-07-09T14:43:56;5.50;;;3.40;;
71838;SDS011;59687;37.520;15.068;2022-07-09T14:46:39;5.70;;;4.03;;
71838;SDS011;59687;37.520;15.068;2022-07-09T14:49:26;6.40;;;3.50;;
71838;SDS011;59687;37.520;15.068;2022-07-09T14:51:54;7.55;;;3.67;;
71838;SDS011;59687;37.520;15.068;2022-07-09T14:54:21;5.80;;;3.70;;
71838;SDS011;59687;37.520;15.068;2022-07-09T14:56:48;6.57;;;3.83;;
71838;SDS011;59687;37.520;15.068;2022-07-09T14:59:16;5.88;;;3.40;;
71838;SDS011;59687;37.520;15.068;2022-07-09T15:01:43;7.10;;;3.63;;